Rena Lara, Mississippi
Current Conditions -  °F | °C
As of 1:35 PM on Friday 28 Nov 2014 (Local Time) from KCKM Reporting Station
Clear Clear  
Wind Chill: 11°   Ceiling: Unl
Heat Index: 11°   Visibility: 10mi
Dew Point:   Wind: 15mph
Humidity: 47%   Direction: 160°SSE
Pressure: 30.25"   Gusts: 21mph
Location:  34.15°N, 90.78°W
Report Text: KCKM 281935Z AUTO 16013G18KT 10SM CLR 11/00 A3025 RMK AO1
Loading
Personal Weather Stations






























Interactive Weather Map New forecast layout! Learn more

10-Day Weather Forecast

Advertisements
Track Severe Weather on mobile